Greenwood, Canada
Current Conditions -  °F | °C
As of 3:00 AM on Thursday 23 Oct 2014 (Local Time) from CYZX Reporting Station
Light Rain Light Rain  
Wind Chill: 52°   Ceiling: 1600
Heat Index: 52°   Visibility: 6mi
Dew Point: 50°   Wind: 20mph
Humidity: 94%   Direction: 70°ENE
Pressure: 30.11"   Gusts: 31mph
Location:  44.98°N, 64.92°W
Report Text: CYZX 230600Z 07017G27KT 6SM -RA BR SCT009 OVC016 11/10 A3011 RMK SF4SC4 WNDY HILL 09021G35KT PCPN VRY LGT SLP198
Loading
Personal Weather Stations






























Interactive Weather Map
Tropical Storm Tracking
New forecast layout! Learn more

10-Day Weather Forecast

Advertisements
Track Severe Weather on mobile